< Cyclone 201524 2017 Season Cyclone 201730 >
Cyclone 201729 (Frances)
General InformationDetailed Track InformationTrack Information on Google MapsList of All Images || ResourceGoogle EarthGE AnimationAtom FeedGeoJSON
Detalied Best Track Wind (Time Zone = UTC)
Year Month Day Hour Lat. Long. Wind (kt) Gust (kt) Direc. of Major Storm Axis Radius of Major Storm Axis (nm) Radius of Minor Storm Axis (nm) Direc. of Major Gale Axis Radius of Major Gale Axis (nm) Radius of Minor Gale Axis (nm) Image
2017 4 24 00 -7.7 136.5 15 45 symmetric - - symmetric - - Image
2017 4 24 06 -8.0 135.3 20 45 symmetric - - symmetric - - Image
2017 4 24 12 -8.0 134.5 20 45 symmetric - - symmetric - - Image
2017 4 24 18 -7.9 133.9 20 45 symmetric - - symmetric - - Image
2017 4 25 00 -7.4 133.2 20 45 symmetric - - symmetric - - Image
2017 4 25 06 -7.4 132.9 20 45 symmetric - - symmetric - - Image
2017 4 25 12 -7.2 132.6 20 45 symmetric - - symmetric - - Image
2017 4 25 18 -7.3 132.1 25 45 symmetric - - symmetric - - Image
2017 4 26 00 -7.6 131.5 25 45 symmetric - - symmetric - - Image
2017 4 26 06 -7.6 131.7 25 45 symmetric - - symmetric - - Image
2017 4 26 12 -8.4 131.4 25 45 symmetric - - symmetric - - Image
2017 4 26 18 -8.7 130.7 25 45 symmetric - - symmetric - - Image
2017 4 27 00 -9.9 130.1 30 45 symmetric - - symmetric - - Image
2017 4 27 06 -10.4 129.2 35 50 symmetric - - symmetric - - Image
2017 4 27 12 -10.6 128.3 45 65 symmetric - - symmetric - - Image
2017 4 27 18 -10.9 127.5 50 70 symmetric - - symmetric - - Image
2017 4 28 00 -11.2 126.4 55 75 symmetric - - symmetric - - Image
2017 4 28 06 -11.7 125.6 65 90 symmetric - - symmetric - - Image
2017 4 28 12 -12.1 125.1 65 90 symmetric - - symmetric - - Image
2017 4 28 18 -12.3 124.4 65 90 symmetric - - symmetric - - Image
2017 4 29 00 -12.6 124.0 65 90 symmetric - - symmetric - - Image
2017 4 29 06 -12.9 123.8 55 75 symmetric - - symmetric - - Image
2017 4 29 12 -12.9 123.2 50 70 symmetric - - symmetric - - Image
2017 4 29 18 -13.0 122.6 35 50 symmetric - - symmetric - - Image
2017 4 30 00 -13.3 122.2 35 50 symmetric - - symmetric - - Image
< Cyclone 201524 2017 Season Cyclone 201730 >

Help